Time;durP1;ratioP1;P1;durP2;ratioP2;P2;SDS_P1;SDS_P2;PMS_P1;PMS_P2;Temp;Humidity;BMP_temperature;BMP_pressure;BME280_temperature;BME280_humidity;BME280_pressure;Samples;Min_cycle;Max_cycle;Signal;HPM_P1;HPM_P2
2021/11/12 00:04:54;;;;;;;5.80;2.58;;;;;;;9.29;74.24;100231.06;5004281;28;20058;-46
2021/11/12 00:15:47;;;;;;;7.95;3.45;;;;;;;9.11;75.26;100204.28;5004590;28;20046;-45
2021/11/12 00:18:15;;;;;;;9.98;3.97;;;;;;;9.08;74.39;100195.63;5001452;28;20054;-47
2021/11/12 00:20:43;;;;;;;11.65;4.00;;;;;;;9.04;74.64;100193.88;4987098;28;20057;-47
2021/11/12 00:23:10;;;;;;;9.45;4.28;;;;;;;9.04;75.55;100194.75;5003714;28;20457;-47
2021/11/12 00:25:37;;;;;;;10.57;4.40;;;;;;;9.03;74.66;100197.31;4998630;28;20403;-49
2021/11/12 00:28:04;;;;;;;8.65;4.22;;;;;;;8.97;75.40;100193.84;5000292;28;20054;-49
2021/11/12 00:33:27;;;;;;;13.30;4.07;;;;;;;8.94;75.98;100170.59;5004151;28;20139;-47
2021/11/12 00:36:46;;;;;;;8.15;3.55;;;;;;;8.91;75.17;100170.56;4993846;28;20092;-49
2021/11/12 00:38:47;;;;;;;8.00;3.70;;;;;;;8.87;75.33;100153.31;5004089;28;20050;-46
2021/11/12 00:44:16;;;;;;;8.55;3.78;;;;;;;8.86;75.81;100133.50;5003905;28;20053;-53
2021/11/12 00:46:54;;;;;;;9.13;3.85;;;;;;;8.84;75.72;100124.88;4990548;28;20042;-44
2021/11/12 00:49:25;;;;;;;11.70;4.10;;;;;;;8.79;76.25;100131.75;4999704;28;20041;-51
2021/11/12 00:51:54;;;;;;;9.38;4.30;;;;;;;8.84;76.35;100136.09;5002590;28;20095;-48
2021/11/12 00:54:21;;;;;;;7.43;3.58;;;;;;;8.83;75.97;100128.31;5004102;28;20046;-48
2021/11/12 00:56:49;;;;;;;8.73;3.78;;;;;;;8.86;75.84;100118.00;5004969;28;20042;-48
2021/11/12 00:59:18;;;;;;;13.10;4.63;;;;;;;8.88;75.44;100116.28;5002692;28;20046;-49
2021/11/12 01:01:46;;;;;;;11.85;4.82;;;;;;;8.82;76.09;100116.28;4994163;28;20482;-51
2021/11/12 01:04:17;;;;;;;10.57;4.40;;;;;;;8.85;76.33;100106.81;5012792;28;20049;-49
2021/11/12 01:06:44;;;;;;;12.63;4.43;;;;;;;8.85;75.29;100090.47;5004430;28;20108;-51
2021/11/12 01:09:13;;;;;;;10.80;4.03;;;;;;;8.83;75.74;100097.34;5003010;28;20053;-51
2021/11/12 01:11:42;;;;;;;10.50;4.68;;;;;;;8.81;75.77;100088.72;5004228;28;20506;-49
2021/11/12 01:14:10;;;;;;;11.82;5.10;;;;;;;8.80;76.28;100081.81;5005274;28;21274;-48
2021/11/12 01:16:37;;;;;;;15.00;4.80;;;;;;;8.80;76.16;100089.56;5003380;28;20054;-48
2021/11/12 01:19:06;;;;;;;14.38;5.30;;;;;;;8.76;76.18;100086.13;5003326;28;20073;-47
2021/11/12 01:21:32;;;;;;;13.75;5.13;;;;;;;8.79;75.88;100080.09;5001678;28;20108;-45
2021/11/12 01:23:59;;;;;;;11.75;4.95;;;;;;;8.79;75.80;100074.94;5005771;28;20552;-47
2021/11/12 01:26:27;;;;;;;15.70;6.07;;;;;;;8.79;75.79;100077.50;5002829;28;20107;-51
2021/11/12 01:28:54;;;;;;;13.25;5.60;;;;;;;8.76;76.74;100077.50;5004612;28;20050;-51
2021/11/12 01:31:29;;;;;;;13.32;5.20;;;;;;;8.83;75.43;100066.34;5002161;28;20050;-46
2021/11/12 01:34:06;;;;;;;13.07;5.25;;;;;;;8.82;76.39;100043.97;5002722;28;20050;-51
2021/11/12 01:36:35;;;;;;;;;;;;;;;8.68;76.30;100042.16;5003483;28;20165;-52
2021/11/12 01:39:07;;;;;;;14.52;5.20;;;;;;;8.74;75.66;100026.69;4999061;28;19925;-45
2021/11/12 01:41:37;;;;;;;11.20;4.03;;;;;;;8.74;76.68;100023.25;5005385;28;20050;-48
2021/11/12 01:44:08;;;;;;;13.95;4.97;;;;;;;8.74;76.75;100013.78;5000209;28;20193;-46
2021/11/12 01:46:45;;;;;;;10.10;4.18;;;;;;;8.74;76.40;99998.28;5000931;28;20115;-44
2021/11/12 01:49:18;;;;;;;10.88;4.72;;;;;;;8.75;76.44;99999.16;5000221;28;20100;-48
2021/11/12 01:51:50;;;;;;;13.18;5.57;;;;;;;8.72;76.74;100000.00;4999521;28;20076;-49
2021/11/12 01:54:25;;;;;;;11.93;5.07;;;;;;;8.73;77.19;99983.66;5001242;28;20054;-50
2021/11/12 01:57:11;;;;;;;11.60;4.78;;;;;;;8.74;76.53;99975.06;5000668;28;20062;-45
2021/11/12 01:59:38;;;;;;;12.07;4.93;;;;;;;8.73;76.54;99973.34;5000585;28;20061;-47
2021/11/12 02:02:08;;;;;;;12.82;5.10;;;;;;;8.74;77.02;99969.88;5005677;28;20456;-48
2021/11/12 02:04:36;;;;;;;13.23;5.22;;;;;;;8.77;76.71;99963.00;5005682;28;20088;-49
2021/11/12 02:07:03;;;;;;;10.52;4.32;;;;;;;8.73;77.46;99970.75;5004129;28;20942;-53
2021/11/12 02:09:31;;;;;;;12.45;4.95;;;;;;;8.74;77.11;99964.72;5001203;28;20140;-51
2021/11/12 02:12:06;;;;;;;13.50;5.35;;;;;;;8.77;77.79;99963.00;5003066;28;20046;-44
2021/11/12 02:14:34;;;;;;;13.00;5.88;;;;;;;8.76;77.56;99962.16;5000722;28;20058;-47
2021/11/12 02:17:09;;;;;;;11.88;5.63;;;;;;;8.75;77.26;99960.44;4999210;28;20561;-47
2021/11/12 02:19:37;;;;;;;14.57;5.35;;;;;;;8.79;77.41;99961.28;5006185;28;20050;-51
2021/11/12 02:22:08;;;;;;;12.20;5.22;;;;;;;8.79;76.87;99958.72;5002779;28;20132;-49
2021/11/12 02:24:40;;;;;;;14.90;6.75;;;;;;;8.79;77.62;99944.09;5004478;28;20809;-45
2021/11/12 02:27:11;;;;;;;14.82;5.32;;;;;;;8.83;77.14;99952.69;5001271;28;20459;-49
2021/11/12 02:29:43;;;;;;;17.40;5.50;;;;;;;8.83;77.13;99957.88;5004478;28;20058;-49
2021/11/12 02:32:17;;;;;;;12.13;4.45;;;;;;;8.85;77.02;99956.16;5002289;28;20177;-49
2021/11/12 02:34:46;;;;;;;10.40;4.93;;;;;;;8.87;77.47;99951.84;5001240;28;20042;-46
2021/11/12 02:37:13;;;;;;;14.32;5.38;;;;;;;8.84;76.69;99944.97;4991763;28;20058;-45
2021/11/12 02:39:41;;;;;;;14.63;6.00;;;;;;;8.89;77.69;99939.81;5000527;28;20092;-49
2021/11/12 02:42:08;;;;;;;15.68;6.30;;;;;;;8.93;77.54;99943.25;5000365;28;20402;-51
2021/11/12 02:44:36;;;;;;;16.40;5.15;;;;;;;8.98;77.07;99937.22;4990800;28;20167;-51
2021/11/12 02:47:03;;;;;;;11.85;5.32;;;;;;;9.02;77.42;99937.25;5001743;28;20096;-46
2021/11/12 02:49:30;;;;;;;14.68;5.10;;;;;;;9.04;77.36;99917.44;5008155;28;20065;-45
2021/11/12 02:51:57;;;;;;;17.35;5.57;;;;;;;9.08;77.40;99901.94;5005260;28;20108;-50
2021/11/12 02:54:25;;;;;;;11.75;4.55;;;;;;;9.11;77.27;99895.91;5007535;28;20433;-50
2021/11/12 02:56:55;;;;;;;13.32;5.05;;;;;;;9.14;76.74;99888.16;5004894;28;20054;-47
2021/11/12 02:59:22;;;;;;;11.77;4.50;;;;;;;9.16;77.00;99885.59;5008415;28;20706;-47
2021/11/12 03:01:49;;;;;;;10.15;4.50;;;;;;;9.16;76.87;99883.88;5009665;28;20100;-49
2021/11/12 03:04:19;;;;;;;15.82;5.82;;;;;;;9.16;76.40;99883.88;5004861;28;20053;-47
2021/11/12 03:06:47;;;;;;;13.90;4.60;;;;;;;9.20;76.77;99877.84;5006592;28;20096;-51
2021/11/12 03:09:15;;;;;;;10.38;4.68;;;;;;;9.24;76.83;99876.97;5005634;28;20052;-52
2021/11/12 03:11:43;;;;;;;13.98;5.15;;;;;;;9.23;76.48;99867.47;5008114;28;20548;-48
2021/11/12 03:14:12;;;;;;;10.07;4.13;;;;;;;9.23;77.05;99862.31;5006219;28;20048;-52
2021/11/12 03:16:39;;;;;;;13.02;4.45;;;;;;;9.26;75.65;99859.75;5008557;28;20050;-50
2021/11/12 03:19:09;;;;;;;14.40;4.80;;;;;;;9.30;75.87;99849.41;5001185;28;20046;-52
2021/11/12 03:21:38;;;;;;;12.98;5.10;;;;;;;9.29;76.59;99842.53;5002820;28;20559;-47
2021/11/12 03:24:11;;;;;;;15.02;4.63;;;;;;;9.32;76.60;99827.84;5006731;28;20096;-49
2021/11/12 03:26:46;;;;;;;11.70;4.53;;;;;;;9.36;75.86;99836.50;5006046;28;20054;-53
2021/11/12 03:30:00;;;;;;;13.15;4.90;;;;;;;9.38;76.01;99833.03;5005734;28;20112;-52
2021/11/12 03:59:55;;;;;;;10.77;4.57;;;;;;;9.66;75.36;99821.75;4991216;28;20692;-51
2021/11/12 04:05:31;;;;;;;13.68;4.78;;;;;;;9.69;75.36;99816.59;5001919;28;20054;-48
2021/11/12 04:19:25;;;;;;;9.48;4.10;;;;;;;9.77;75.16;99788.97;5006152;28;20046;-45
2021/11/12 04:22:03;;;;;;;12.45;5.75;;;;;;;9.79;75.22;99795.88;4991534;28;21297;-52
2021/11/12 04:30:46;;;;;;;10.10;3.78;;;;;;;9.82;75.17;99795.84;5017791;28;20057;-48
2021/11/12 04:41:38;;;;;;;7.13;4.30;;;;;;;9.88;75.09;99793.25;4999766;28;20104;-49
2021/11/12 05:12:12;;;;;;;10.02;4.68;;;;;;;9.82;75.76;99738.94;5001252;28;20438;-49
2021/11/12 05:26:14;;;;;;;10.55;4.07;;;;;;;9.71;76.16;99706.25;5002027;28;20100;-49
2021/11/12 05:34:34;;;;;;;12.40;3.92;;;;;;;9.71;76.58;99724.34;5002687;28;20054;-54
2021/11/12 05:45:14;;;;;;;10.27;4.72;;;;;;;9.81;76.81;99706.19;4998719;28;20046;-53
2021/11/12 05:56:01;;;;;;;9.05;4.38;;;;;;;9.86;76.52;99688.94;4995809;28;20053;-52
2021/11/12 05:58:28;;;;;;;10.15;4.28;;;;;;;9.85;76.89;99676.84;5003985;28;20069;-48
2021/11/12 06:00:59;;;;;;;11.95;4.07;;;;;;;9.85;76.68;99687.19;5004961;28;20049;-52
2021/11/12 06:03:25;;;;;;;15.32;4.93;;;;;;;9.80;76.84;99668.25;5004150;28;20046;-51
2021/11/12 06:05:52;;;;;;;10.40;3.58;;;;;;;9.81;77.01;99669.97;5003501;28;20086;-46
2021/11/12 06:08:18;;;;;;;12.07;4.68;;;;;;;9.80;76.92;99665.69;5002758;28;20050;-46
2021/11/12 06:10:45;;;;;;;12.10;4.72;;;;;;;9.75;77.24;99665.69;4996640;28;20042;-49
2021/11/12 06:13:12;;;;;;;11.07;3.83;;;;;;;9.77;77.16;99649.28;5003702;28;20050;-49
2021/11/12 06:15:39;;;;;;;9.60;3.88;;;;;;;9.80;77.10;99652.75;5001782;28;20057;-48
2021/11/12 06:18:06;;;;;;;9.73;4.13;;;;;;;9.79;77.51;99651.03;5002459;28;20038;-47
2021/11/12 06:20:34;;;;;;;9.82;4.10;;;;;;;9.78;77.55;99650.16;4998528;28;20050;-49
2021/11/12 06:23:00;;;;;;;11.50;4.10;;;;;;;9.79;77.52;99651.03;5004288;28;20045;-54
2021/11/12 06:25:27;;;;;;;10.00;4.20;;;;;;;9.80;77.45;99647.56;5002233;28;20071;-53
2021/11/12 06:27:54;;;;;;;8.68;4.15;;;;;;;9.81;77.62;99649.28;5005343;28;20050;-49
2021/11/12 06:30:21;;;;;;;11.00;4.20;;;;;;;9.80;77.87;99648.44;5004548;28;20552;-52
2021/11/12 06:32:47;;;;;;;10.20;3.95;;;;;;;9.81;77.90;99641.53;5005090;28;20054;-49
2021/11/12 06:35:14;;;;;;;10.95;3.83;;;;;;;9.83;77.76;99642.38;5005871;28;20217;-52
2021/11/12 06:37:41;;;;;;;8.05;3.63;;;;;;;9.78;78.56;99629.47;5005917;28;20116;-53
2021/11/12 06:40:09;;;;;;;11.38;3.47;;;;;;;9.82;78.35;99619.97;5006641;28;20046;-47
2021/11/12 06:42:48;;;;;;;6.35;3.33;;;;;;;9.80;77.88;99625.16;5004185;28;20050;-51
2021/11/12 06:50:48;;;;;;;8.60;3.42;;;;;;;9.82;78.64;99604.44;4992009;28;20076;-47
2021/11/12 06:53:15;;;;;;;10.77;4.18;;;;;;;9.87;79.15;99597.53;5004041;28;20050;-47
2021/11/12 06:55:41;;;;;;;11.30;3.47;;;;;;;9.89;79.16;99611.28;5001071;28;20065;-48
2021/11/12 06:58:08;;;;;;;8.52;3.38;;;;;;;9.88;79.07;99605.28;5006457;28;20041;-50
2021/11/12 07:00:35;;;;;;;6.85;2.85;;;;;;;9.91;79.17;99614.75;5005058;28;20115;-49
2021/11/12 07:03:01;;;;;;;9.25;3.17;;;;;;;9.94;78.92;99604.38;5005509;28;20077;-52
2021/11/12 07:05:28;;;;;;;11.35;3.42;;;;;;;9.92;79.58;99602.69;5007092;28;20045;-47
2021/11/12 07:07:55;;;;;;;11.35;3.53;;;;;;;9.93;79.65;99596.63;5001283;28;20052;-54
2021/11/12 07:10:21;;;;;;;10.93;3.42;;;;;;;9.96;79.54;99596.59;5000301;28;20053;-53
2021/11/12 07:12:50;;;;;;;7.55;2.88;;;;;;;9.98;79.42;99593.13;5004699;28;20095;-50
2021/11/12 07:15:19;;;;;;;7.68;3.13;;;;;;;10.05;79.72;99596.53;5001922;28;20482;-50
2021/11/12 07:17:47;;;;;;;8.27;3.35;;;;;;;10.01;79.64;99595.69;4996258;28;20731;-47
2021/11/12 07:20:14;;;;;;;8.05;3.38;;;;;;;10.03;80.05;99588.78;5004605;28;20052;-53
2021/11/12 07:22:41;;;;;;;8.25;3.15;;;;;;;10.02;79.90;99581.88;5007585;28;20096;-54
2021/11/12 07:25:08;;;;;;;9.55;3.22;;;;;;;10.03;80.13;99588.78;5002045;28;20113;-50
2021/11/12 07:27:34;;;;;;;9.43;2.92;;;;;;;10.11;79.73;99582.69;5002800;28;20073;-51
2021/11/12 07:30:18;;;;;;;6.70;2.30;;;;;;;10.07;80.50;99568.91;5006593;28;20053;-53
2021/11/12 07:32:47;;;;;;;7.97;3.17;;;;;;;10.08;80.70;99559.41;5005601;28;20042;-45
2021/11/12 07:35:17;;;;;;;6.07;2.63;;;;;;;10.11;80.08;99577.50;5006101;28;20037;-52
2021/11/12 07:37:44;;;;;;;5.18;2.38;;;;;;;10.13;80.44;99575.75;5006054;28;20046;-54
2021/11/12 07:40:20;;;;;;;6.55;2.40;;;;;;;10.18;80.18;99566.22;5005912;28;20053;-50
2021/11/12 07:45:39;;;;;;;5.43;1.95;;;;;;;10.22;80.47;99560.16;4999264;28;20054;-46
2021/11/12 07:48:06;;;;;;;5.20;1.95;;;;;;;10.25;80.27;99557.53;5003493;28;20038;-51
2021/11/12 07:50:35;;;;;;;4.60;1.90;;;;;;;10.29;80.16;99543.69;5005940;28;20054;-50
2021/11/12 07:53:01;;;;;;;4.75;1.70;;;;;;;10.31;80.54;99542.81;5004203;28;20464;-46
2021/11/12 07:55:28;;;;;;;5.40;1.55;;;;;;;10.31;80.60;99537.63;5001132;28;20109;-55
2021/11/12 07:57:55;;;;;;;10.40;2.40;;;;;;;10.32;80.07;99531.59;4997714;28;20620;-50
2021/11/12 08:00:22;;;;;;;5.18;2.00;;;;;;;10.31;80.50;99524.69;4996809;28;20497;-48
2021/11/12 08:02:49;;;;;;;4.40;1.80;;;;;;;10.32;80.52;99503.09;5001904;28;20050;-51
2021/11/12 08:05:23;;;;;;;4.45;1.45;;;;;;;10.33;80.47;99507.44;5000620;28;20057;-50
2021/11/12 08:07:53;;;;;;;3.17;1.40;;;;;;;10.38;80.14;99526.34;4996598;28;20504;-51
2021/11/12 08:10:22;;;;;;;4.05;1.70;;;;;;;10.44;80.25;99535.78;5000937;28;20062;-50
2021/11/12 08:12:58;;;;;;;3.95;1.60;;;;;;;10.50;79.89;99531.44;4990673;28;20058;-50
2021/11/12 08:15:34;;;;;;;3.88;1.60;;;;;;;10.54;80.44;99530.50;4997678;28;20050;-50
2021/11/12 08:21:00;;;;;;;5.45;1.65;;;;;;;10.68;80.25;99529.53;4985310;28;20054;-47
2021/11/12 08:26:34;;;;;;;4.35;1.55;;;;;;;10.77;79.46;99528.53;4999484;28;20045;-52
2021/11/12 08:34:47;;;;;;;4.25;1.58;;;;;;;10.88;79.44;99521.47;4997419;28;20050;-56
2021/11/12 08:37:22;;;;;;;4.25;2.03;;;;;;;10.91;79.73;99530.97;4997703;28;20060;-50
2021/11/12 08:40:01;;;;;;;3.42;1.50;;;;;;;10.93;79.64;99513.66;4998318;28;20050;-48
2021/11/12 08:42:34;;;;;;;3.75;1.58;;;;;;;10.96;80.44;99518.81;4994663;28;20054;-47
2021/11/12 08:47:52;;;;;;;2.25;1.48;;;;;;;11.07;80.40;99510.88;4988032;28;20050;-51
2021/11/12 08:50:21;;;;;;;3.20;1.20;;;;;;;11.13;80.34;99509.94;4999348;28;20054;-50
2021/11/12 08:52:51;;;;;;;2.85;1.55;;;;;;;11.17;79.90;99491.75;4998214;28;20057;-47
2021/11/12 08:55:28;;;;;;;4.50;1.90;;;;;;;11.20;79.16;99493.44;4995427;28;20054;-51
2021/11/12 08:57:56;;;;;;;3.08;1.45;;;;;;;11.23;78.92;99484.75;5000412;28;20073;-48
2021/11/12 09:00:23;;;;;;;3.33;1.60;;;;;;;11.24;80.41;99474.38;4997567;28;20168;-44
2021/11/12 09:02:51;;;;;;;4.38;1.20;;;;;;;11.27;79.67;99476.91;5002675;28;20141;-47
2021/11/12 09:05:20;;;;;;;2.67;1.05;;;;;;;11.38;79.49;99483.69;4996661;28;20189;-50
2021/11/12 09:07:48;;;;;;;2.55;1.10;;;;;;;11.56;80.07;99473.00;4990216;28;20042;-48
2021/11/12 09:10:17;;;;;;;5.47;3.58;;;;;;;12.05;79.78;99465.28;4987390;28;20607;-55
2021/11/12 09:12:47;;;;;;;3.22;1.10;;;;;;;12.42;79.39;99468.94;4988403;28;20537;-50
2021/11/12 09:15:23;;;;;;;3.90;1.13;;;;;;;12.96;77.75;99474.78;4991070;28;20441;-52
2021/11/12 09:17:50;;;;;;;2.58;1.15;;;;;;;13.33;76.81;99467.88;4994824;28;20609;-48
2021/11/12 09:20:23;;;;;;;5.05;1.23;;;;;;;14.01;75.93;99477.53;4987985;28;20057;-47
2021/11/12 09:22:52;;;;;;;5.57;1.10;;;;;;;14.84;74.81;99460.53;4993378;28;20058;-54
2021/11/12 09:25:20;;;;;;;2.58;1.27;;;;;;;15.75;73.65;99453.31;5000277;28;20559;-50
2021/11/12 09:27:47;;;;;;;5.30;1.15;;;;;;;16.65;71.56;99465.00;5001100;28;20045;-51
2021/11/12 09:30:21;;;;;;;2.65;0.82;;;;;;;17.41;69.10;99442.94;5003766;28;20046;-50
2021/11/12 09:32:50;;;;;;;3.38;0.77;;;;;;;18.26;68.80;99429.78;5006329;28;20482;-48
2021/11/12 09:35:17;;;;;;;4.40;0.75;;;;;;;18.91;64.80;99412.81;5003811;28;20100;-45
2021/11/12 09:37:43;;;;;;;2.90;0.90;;;;;;;19.14;63.20;99421.41;4999823;28;20055;-47
2021/11/12 09:40:10;;;;;;;4.70;0.80;;;;;;;18.73;63.03;99428.53;5000246;28;20394;-50
2021/11/12 09:42:38;;;;;;;6.03;1.05;;;;;;;18.16;62.75;99439.81;5003375;28;20046;-50
2021/11/12 09:45:07;;;;;;;2.42;0.77;;;;;;;17.67;63.62;99433.13;5000097;28;20045;-50
2021/11/12 09:47:34;;;;;;;2.35;0.98;;;;;;;17.18;64.75;99436.84;5003374;28;20045;-50
2021/11/12 09:50:05;;;;;;;2.80;0.60;;;;;;;16.74;65.15;99448.09;5000524;28;20065;-49
2021/11/12 09:52:33;;;;;;;4.15;0.93;;;;;;;16.40;65.70;99439.78;5003976;28;20069;-48
2021/11/12 09:55:00;;;;;;;2.22;0.73;;;;;;;16.12;66.12;99448.63;5003032;28;20548;-47
2021/11/12 09:57:27;;;;;;;9.25;1.55;;;;;;;15.83;67.01;99442.59;5000049;28;20479;-48
2021/11/12 09:59:58;;;;;;;4.63;1.08;;;;;;;15.66;66.77;99432.72;5001406;28;20050;-47
2021/11/12 10:02:28;;;;;;;6.80;1.02;;;;;;;15.40;67.52;99437.91;5002078;28;20108;-50
2021/11/12 10:04:55;;;;;;;8.85;0.85;;;;;;;15.20;67.40;99419.44;5003851;28;20465;-50
2021/11/12 10:07:25;;;;;;;11.45;1.10;;;;;;;14.94;67.41;99415.91;5004493;28;20111;-50
2021/11/12 10:10:13;;;;;;;7.15;1.33;;;;;;;14.71;67.09;99412.22;4999697;28;20375;-48
2021/11/12 10:12:43;;;;;;;8.00;1.05;;;;;;;15.08;68.22;99410.25;4993125;28;20512;-55
2021/11/12 10:15:12;;;;;;;;;;;;;;;15.66;67.97;99410.09;5001806;28;20053;-50
2021/11/12 10:17:39;;;;;;;;;;;;;;;16.34;64.98;99400.78;5003037;28;19926;-47
2021/11/12 10:20:09;;;;;;;6.63;1.20;;;;;;;16.97;64.51;99407.13;5002497;28;20374;-48
2021/11/12 10:22:38;;;;;;;;;;;;;;;17.06;64.15;99395.50;5007724;28;20046;-51
2021/11/12 10:25:07;;;;;;;8.50;1.45;;;;;;;17.18;63.48;99395.00;5001777;28;19933;-47
2021/11/12 10:27:35;;;;;;;5.63;0.85;;;;;;;17.13;62.71;99391.72;4998706;28;20084;-45
2021/11/12 10:30:10;;;;;;;7.05;1.08;;;;;;;17.04;62.85;99381.56;5001299;28;20051;-50
2021/11/12 10:32:38;;;;;;;8.38;1.17;;;;;;;17.03;62.88;99382.50;5003156;28;20046;-50
2021/11/12 10:35:17;;;;;;;9.18;1.10;;;;;;;17.09;62.80;99379.66;5003850;28;20046;-46
2021/11/12 10:37:44;;;;;;;9.43;1.27;;;;;;;17.18;63.61;99376.66;5002429;28;20041;-51
2021/11/12 10:40:16;;;;;;;9.65;1.40;;;;;;;17.20;62.89;99372.22;5004014;28;20112;-46
2021/11/12 10:42:46;;;;;;;5.55;0.98;;;;;;;17.27;63.06;99353.66;4998714;28;20104;-49
2021/11/12 10:45:19;;;;;;;9.15;1.20;;;;;;;17.16;62.24;99354.94;4999101;28;20457;-54
2021/11/12 10:47:51;;;;;;;6.40;1.10;;;;;;;17.03;61.99;99348.50;5004302;28;20058;-47
2021/11/12 10:50:20;;;;;;;8.15;1.08;;;;;;;16.96;62.19;99355.75;5004389;28;20403;-48
2021/11/12 10:52:49;;;;;;;7.90;1.27;;;;;;;16.85;62.68;99353.53;5001230;28;20588;-47
2021/11/12 10:55:22;;;;;;;9.75;0.98;;;;;;;16.62;62.98;99344.84;4995577;28;20101;-47
2021/11/12 10:57:53;;;;;;;7.97;1.60;;;;;;;16.38;62.81;99342.25;4996706;28;20100;-46
2021/11/12 11:00:24;;;;;;;11.43;1.50;;;;;;;16.13;62.82;99348.44;4972830;28;20061;-48
2021/11/12 11:02:54;;;;;;;7.38;0.82;;;;;;;16.00;63.70;99348.03;4997265;28;20057;-51
2021/11/12 11:05:25;;;;;;;6.90;1.77;;;;;;;15.81;63.70;99353.03;5003774;28;20042;-52
2021/11/12 11:07:55;;;;;;;11.25;1.60;;;;;;;15.76;64.01;99349.72;5004090;28;20053;-46
2021/11/12 11:10:33;;;;;;;13.10;2.38;;;;;;;15.72;64.34;99343.78;5002998;28;20046;-48
2021/11/12 11:13:10;;;;;;;9.68;2.72;;;;;;;15.65;63.93;99345.75;5004053;28;20768;-48
2021/11/12 11:15:42;;;;;;;12.93;1.90;;;;;;;15.60;64.43;99355.47;5009206;28;20444;-53
2021/11/12 11:18:21;;;;;;;16.40;2.00;;;;;;;15.46;63.82;99345.53;5000520;28;20065;-51
2021/11/12 11:20:52;;;;;;;10.23;1.95;;;;;;;15.47;64.78;99334.19;5003066;28;20061;-49
2021/11/12 11:23:21;;;;;;;10.02;1.77;;;;;;;15.35;64.40;99339.81;5001449;28;20073;-45
2021/11/12 11:25:50;;;;;;;15.18;2.00;;;;;;;15.29;65.07;99335.66;5003794;28;20047;-48
2021/11/12 11:28:18;;;;;;;11.80;1.67;;;;;;;15.19;64.76;99339.50;5004816;28;20548;-48
2021/11/12 11:30:47;;;;;;;14.85;1.95;;;;;;;15.12;65.21;99339.69;5000957;28;20050;-45
2021/11/12 11:33:15;;;;;;;13.50;2.22;;;;;;;15.04;65.35;99339.94;5002028;28;20068;-47
2021/11/12 11:35:45;;;;;;;11.20;2.03;;;;;;;14.93;65.69;99338.59;5003148;28;20389;-50
2021/11/12 11:38:15;;;;;;;10.18;2.42;;;;;;;14.82;65.89;99342.38;5001424;28;20050;-44
2021/11/12 11:40:46;;;;;;;13.20;1.88;;;;;;;14.73;65.65;99337.44;5004436;28;20053;-47
2021/11/12 11:43:14;;;;;;;13.30;2.65;;;;;;;14.64;65.70;99322.94;5001527;28;20049;-46
2021/11/12 11:45:46;;;;;;;16.17;2.20;;;;;;;14.60;65.65;99321.34;5004990;28;20053;-50
2021/11/12 11:48:15;;;;;;;16.83;2.00;;;;;;;14.49;66.06;99329.50;5002315;28;20053;-46
2021/11/12 11:50:51;;;;;;;14.40;2.35;;;;;;;14.44;65.67;99321.81;5002577;28;20532;-49
2021/11/12 11:53:30;;;;;;;11.57;1.90;;;;;;;14.35;65.80;99319.47;5002641;28;20121;-52
2021/11/12 11:56:12;;;;;;;14.95;2.20;;;;;;;14.22;65.37;99298.16;5002414;28;20050;-48
2021/11/12 11:58:42;;;;;;;9.43;1.75;;;;;;;14.24;66.91;99293.75;4980948;28;20446;-48
2021/11/12 12:01:11;;;;;;;8.95;1.90;;;;;;;14.23;66.77;99298.13;5001257;28;20075;-47
2021/11/12 12:03:38;;;;;;;10.75;2.20;;;;;;;14.22;66.64;99295.56;5005502;28;20046;-45
2021/11/12 12:06:09;;;;;;;17.10;1.73;;;;;;;14.23;67.41;99302.47;5007694;28;20046;-46
2021/11/12 12:09:01;;;;;;;13.73;2.00;;;;;;;14.18;66.89;99309.56;5008645;28;20034;-50
2021/11/12 12:11:28;;;;;;;12.57;1.27;;;;;;;14.25;67.21;99311.94;5003182;28;20468;-51
2021/11/12 12:14:16;;;;;;;12.65;1.65;;;;;;;14.22;66.33;99311.19;5004318;28;20104;-45
2021/11/12 12:16:44;;;;;;;15.15;1.70;;;;;;;14.28;66.51;99310.97;4999626;28;20108;-48
2021/11/12 12:20:00;;;;;;;15.38;1.55;;;;;;;14.26;67.31;99318.00;5001556;28;20046;-49
2021/11/12 12:34:56;;;;;;;13.93;1.52;;;;;;;14.02;67.03;99304.81;5006488;28;20046;-48
2021/11/12 12:41:12;;;;;;;14.82;1.90;;;;;;;14.03;67.47;99301.31;4985698;28;20057;-48
2021/11/12 13:20:48;;;;;;;13.73;1.70;;;;;;;13.79;68.17;99254.28;5014146;28;20082;-45
2021/11/12 13:26:05;;;;;;;15.02;2.13;;;;;;;13.84;68.56;99254.97;4986819;28;20112;-47
2021/11/12 13:28:35;;;;;;;9.45;1.58;;;;;;;13.87;68.25;99244.47;5001489;28;20466;-46
2021/11/12 13:31:10;;;;;;;12.88;2.08;;;;;;;13.88;67.29;99237.50;5002617;28;20062;-44
2021/11/12 13:33:55;;;;;;;16.00;1.35;;;;;;;13.85;67.08;99235.84;5002088;28;20042;-47
2021/11/12 13:36:32;;;;;;;10.30;1.65;;;;;;;13.87;67.58;99234.06;5004841;28;20104;-46
2021/11/12 13:39:07;;;;;;;9.85;1.35;;;;;;;13.98;67.66;99230.28;5004854;28;20089;-50
2021/11/12 13:41:38;;;;;;;16.35;2.30;;;;;;;14.01;67.13;99228.44;4998301;28;20056;-46
2021/11/12 13:44:10;;;;;;;14.05;1.65;;;;;;;14.04;66.71;99230.09;4999666;28;20050;-49
2021/11/12 13:46:53;;;;;;;8.82;1.70;;;;;;;14.07;66.92;99231.75;5002768;28;20081;-47
2021/11/12 13:49:40;;;;;;;10.63;1.52;;;;;;;14.09;67.57;99228.19;5004436;28;20046;-47
2021/11/12 13:52:14;;;;;;;12.07;1.90;;;;;;;14.13;67.05;99229.84;5005701;28;20046;-48
2021/11/12 13:54:49;;;;;;;11.95;1.73;;;;;;;14.19;66.56;99225.34;5002612;28;20046;-46
2021/11/12 13:57:19;;;;;;;15.10;1.67;;;;;;;14.22;66.33;99227.84;4992111;28;20058;-50
2021/11/12 13:59:52;;;;;;;12.63;1.35;;;;;;;14.18;66.31;99236.66;4999964;28;20041;-48
2021/11/12 14:02:19;;;;;;;9.90;1.58;;;;;;;14.16;67.21;99220.22;5002472;28;20118;-49
2021/11/12 14:04:47;;;;;;;9.50;1.40;;;;;;;14.13;66.88;99213.34;4999048;28;20183;-49
2021/11/12 14:07:15;;;;;;;9.80;1.55;;;;;;;14.09;67.16;99207.38;5001241;28;20046;-48
2021/11/12 14:09:42;;;;;;;12.20;1.52;;;;;;;14.07;66.42;99217.00;4998195;28;20150;-48
2021/11/12 14:12:12;;;;;;;10.13;1.45;;;;;;;14.04;66.61;99218.81;5000988;28;20050;-43
2021/11/12 14:14:42;;;;;;;14.38;1.35;;;;;;;14.02;66.42;99211.09;4995277;28;20054;-50
2021/11/12 14:17:22;;;;;;;16.30;2.25;;;;;;;13.94;65.67;99218.25;4996949;28;20421;-46
2021/11/12 14:19:58;;;;;;;11.27;1.45;;;;;;;13.96;66.22;99219.06;4999616;28;20505;-48
2021/11/12 14:25:25;;;;;;;9.43;1.10;;;;;;;13.92;66.45;99212.25;4996979;28;20053;-45
2021/11/12 14:28:37;;;;;;;10.75;1.45;;;;;;;13.85;66.56;99215.03;5000381;28;20054;-48
2021/11/12 14:31:22;;;;;;;5.35;1.08;;;;;;;13.80;66.72;99208.25;4987995;28;20096;-47
2021/11/12 14:33:49;;;;;;;8.93;1.83;;;;;;;13.79;67.46;99204.81;4997992;28;20382;-46
2021/11/12 14:36:29;;;;;;;8.50;0.82;;;;;;;13.76;67.16;99210.09;4999350;28;20058;-47
2021/11/12 14:39:22;;;;;;;9.13;1.42;;;;;;;13.70;66.95;99207.66;4998097;28;20046;-50
2021/11/12 14:45:06;;;;;;;8.48;1.05;;;;;;;13.57;67.24;99200.22;4986218;28;20510;-47
2021/11/12 14:47:42;;;;;;;13.13;1.42;;;;;;;13.60;67.81;99194.94;5004508;28;20107;-50
2021/11/12 14:50:35;;;;;;;10.23;1.08;;;;;;;13.56;68.17;99198.53;5006696;28;20527;-46
2021/11/12 14:53:30;;;;;;;8.23;0.65;;;;;;;13.58;68.24;99196.72;4996527;28;20103;-49
2021/11/12 14:56:06;;;;;;;4.00;0.85;;;;;;;13.61;67.53;99191.44;5006048;28;20049;-50
2021/11/12 14:58:36;;;;;;;7.47;0.93;;;;;;;13.58;67.63;99190.69;5000047;28;20130;-48
2021/11/12 15:01:07;;;;;;;9.38;1.08;;;;;;;13.57;68.14;99201.97;5004135;28;20434;-48
2021/11/12 15:03:35;;;;;;;6.65;0.80;;;;;;;13.50;67.78;99198.69;5000338;28;20065;-49
2021/11/12 15:06:02;;;;;;;5.90;0.82;;;;;;;13.44;67.69;99193.66;5003069;28;20050;-48
2021/11/12 15:08:30;;;;;;;8.75;1.10;;;;;;;13.41;67.93;99194.56;5008711;28;20046;-50
2021/11/12 15:10:58;;;;;;;7.57;1.10;;;;;;;13.39;67.96;99185.09;5000282;28;20042;-50
2021/11/12 15:13:28;;;;;;;8.25;1.02;;;;;;;13.35;67.65;99185.19;5008579;28;20525;-45
2021/11/12 15:15:55;;;;;;;11.65;1.20;;;;;;;13.35;67.51;99185.19;5005989;28;20737;-49
2021/11/12 15:18:22;;;;;;;7.00;0.98;;;;;;;13.30;67.83;99191.41;5004679;28;20074;-45
2021/11/12 15:20:50;;;;;;;6.68;1.05;;;;;;;13.28;68.48;99183.69;5008103;28;20062;-47
2021/11/12 15:26:17;;;;;;;7.70;1.10;;;;;;;13.19;68.99;99189.13;5005467;28;20104;-47
2021/11/12 15:31:56;;;;;;;6.85;1.00;;;;;;;13.08;68.02;99174.66;4999979;28;20551;-48
2021/11/12 15:34:17;;;;;;;10.32;1.13;;;;;;;13.08;68.40;99176.41;5004719;28;20060;-49
2021/11/12 15:36:58;;;;;;;6.55;0.68;;;;;;;13.04;69.08;99175.63;5006861;28;20050;-45